Time;durP1;ratioP1;P1;durP2;ratioP2;P2;SDS_P1;SDS_P2;PMS_P1;PMS_P2;Temp;Humidity;BMP_temperature;BMP_pressure;BME280_temperature;BME280_humidity;BME280_pressure;Samples;Min_cycle;Max_cycle;Signal;HPM_P1;HPM_P2
2023/03/10 00:02:01;;;;;;;24.60;13.40;;;2.20;99.90;;;;;;4969525;28;20046;-73
2023/03/10 00:04:26;;;;;;;27.75;14.45;;;2.20;99.90;;;;;;4988640;28;20348;-73
2023/03/10 00:06:54;;;;;;;27.30;14.43;;;2.30;99.90;;;;;;4988359;28;20066;-73
2023/03/10 00:09:19;;;;;;;28.05;13.95;;;2.20;99.90;;;;;;4947608;28;20043;-73
2023/03/10 00:11:45;;;;;;;24.70;13.10;;;2.20;99.90;;;;;;4966332;28;20050;-73
2023/03/10 00:14:11;;;;;;;24.63;13.57;;;2.20;99.90;;;;;;4980849;28;20077;-73
2023/03/10 00:16:37;;;;;;;26.55;14.35;;;2.20;99.90;;;;;;4983290;28;20673;-73
2023/03/10 00:19:03;;;;;;;24.65;13.38;;;2.30;99.90;;;;;;4963844;28;20046;-73
2023/03/10 00:21:31;;;;;;;27.00;13.60;;;2.30;99.90;;;;;;4986757;28;20127;-73
2023/03/10 00:23:57;;;;;;;24.67;13.57;;;2.40;99.90;;;;;;4966156;28;20050;-73
2023/03/10 00:26:24;;;;;;;25.77;13.15;;;2.40;99.90;;;;;;4953009;28;20038;-73
2023/03/10 00:28:50;;;;;;;25.25;13.68;;;2.40;99.90;;;;;;4982025;28;20125;-74
2023/03/10 00:31:18;;;;;;;27.02;14.07;;;2.30;99.90;;;;;;4968225;28;20245;-73
2023/03/10 00:33:43;;;;;;;27.53;14.80;;;2.40;99.90;;;;;;4981639;28;20046;-73
2023/03/10 00:36:17;;;;;;;32.00;15.80;;;2.40;99.90;;;;;;4955606;28;20832;-73
2023/03/10 00:38:44;;;;;;;29.27;15.50;;;2.40;99.90;;;;;;4966367;28;20061;-73
2023/03/10 00:41:13;;;;;;;33.05;16.42;;;2.40;99.90;;;;;;4975748;28;20042;-73
2023/03/10 00:43:39;;;;;;;25.90;13.70;;;2.30;99.90;;;;;;4990439;28;20437;-73
2023/03/10 00:46:05;;;;;;;33.05;15.10;;;2.30;99.90;;;;;;4975877;28;20042;-73
2023/03/10 00:48:31;;;;;;;27.08;15.07;;;2.30;99.90;;;;;;4974060;28;20046;-73
2023/03/10 00:50:56;;;;;;;26.17;14.55;;;2.40;99.90;;;;;;4975324;28;20038;-73
2023/03/10 00:53:23;;;;;;;27.73;15.40;;;2.40;99.90;;;;;;4991671;28;20078;-73
2023/03/10 00:56:06;;;;;;;29.30;14.93;;;2.40;99.90;;;;;;4984817;28;20046;-73
2023/03/10 00:58:32;;;;;;;28.45;13.40;;;2.40;99.90;;;;;;4976585;28;20116;-73
2023/03/10 01:00:58;;;;;;;27.75;13.63;;;2.50;99.90;;;;;;4982318;28;20049;-73
2023/03/10 01:03:36;;;;;;;28.55;14.40;;;2.40;99.90;;;;;;4986673;28;20546;-73
2023/03/10 01:06:02;;;;;;;24.50;12.73;;;2.30;99.90;;;;;;4963222;28;20133;-73
2023/03/10 01:08:27;;;;;;;25.00;13.57;;;2.30;99.90;;;;;;4986038;28;20059;-73
2023/03/10 01:10:53;;;;;;;24.80;12.60;;;2.40;99.90;;;;;;4950890;28;20053;-73
2023/03/10 01:13:19;;;;;;;24.55;12.77;;;2.40;99.90;;;;;;4990896;28;20141;-73
2023/03/10 01:15:49;;;;;;;26.50;13.43;;;2.30;99.90;;;;;;4953059;28;20069;-73
2023/03/10 01:18:15;;;;;;;29.38;13.73;;;2.30;99.90;;;;;;4972002;28;20038;-73
2023/03/10 01:20:41;;;;;;;23.55;13.05;;;2.30;99.90;;;;;;4980688;28;20053;-73
2023/03/10 01:23:26;;;;;;;34.38;14.40;;;2.30;99.90;;;;;;4988137;28;20057;-73
2023/03/10 01:25:52;;;;;;;25.52;12.68;;;2.30;99.90;;;;;;4945689;28;20046;-73
2023/03/10 01:28:18;;;;;;;24.17;12.07;;;2.20;99.90;;;;;;4986944;28;21642;-73
2023/03/10 01:30:44;;;;;;;22.75;11.63;;;2.30;99.90;;;;;;4974318;28;20057;-73
2023/03/10 01:33:10;;;;;;;22.92;12.95;;;2.30;99.90;;;;;;4983925;28;20058;-72
2023/03/10 01:35:36;;;;;;;23.38;11.75;;;2.30;99.90;;;;;;4979034;28;20483;-73
2023/03/10 01:38:02;;;;;;;22.05;11.00;;;2.20;99.90;;;;;;4983652;28;20081;-73
2023/03/10 01:40:28;;;;;;;26.23;12.27;;;2.20;99.90;;;;;;4972577;28;20046;-73
2023/03/10 01:43:33;;;;;;;21.65;11.45;;;2.30;99.90;;;;;;4968110;28;20053;-73
2023/03/10 01:46:20;;;;;;;21.63;11.30;;;2.30;99.90;;;;;;4984754;28;20128;-73
2023/03/10 01:48:45;;;;;;;23.75;11.73;;;2.30;99.90;;;;;;4978621;28;20047;-73
2023/03/10 01:51:11;;;;;;;20.98;11.73;;;2.30;99.90;;;;;;4961211;28;20046;-73
2023/03/10 01:53:37;;;;;;;23.50;11.95;;;2.40;99.90;;;;;;4961025;28;20054;-73
2023/03/10 01:56:03;;;;;;;20.38;10.93;;;2.40;99.90;;;;;;4989066;28;20054;-73
2023/03/10 01:58:33;;;;;;;19.67;9.93;;;2.40;99.90;;;;;;4982338;28;20183;-73
2023/03/10 02:00:59;;;;;;;20.50;10.75;;;2.30;99.90;;;;;;4968635;28;20078;-73
2023/03/10 02:03:56;;;;;;;20.20;10.15;;;2.40;99.90;;;;;;4969418;28;20498;-73
2023/03/10 02:06:22;;;;;;;;;;;2.40;99.90;;;;;;4966207;28;20059;-74
2023/03/10 02:08:50;;;;;;;19.85;10.00;;;2.40;99.90;;;;;;4964038;28;19925;-73
2023/03/10 02:11:16;;;;;;;17.95;10.23;;;2.30;99.90;;;;;;4981110;28;20383;-73
2023/03/10 02:13:42;;;;;;;24.73;11.27;;;2.30;99.90;;;;;;4985118;28;20050;-73
2023/03/10 02:16:08;;;;;;;20.48;10.18;;;2.30;99.90;;;;;;4993245;28;20053;-73
2023/03/10 02:18:33;;;;;;;20.10;10.05;;;2.40;99.90;;;;;;4978244;28;20050;-73
2023/03/10 02:21:12;;;;;;;19.17;10.20;;;2.40;99.90;;;;;;4986574;28;20165;-73
2023/03/10 02:24:02;;;;;;;20.92;9.77;;;2.30;99.90;;;;;;4987873;28;20046;-73
2023/03/10 02:26:49;;;;;;;20.42;10.10;;;2.30;99.90;;;;;;4983222;28;20042;-73
2023/03/10 02:29:19;;;;;;;20.42;10.00;;;2.30;99.90;;;;;;4984829;28;20137;-73
2023/03/10 02:31:45;;;;;;;18.40;9.70;;;2.40;99.90;;;;;;4981215;28;20062;-73
2023/03/10 02:34:11;;;;;;;19.83;10.00;;;2.30;99.90;;;;;;4971231;28;20054;-73
2023/03/10 02:36:37;;;;;;;17.27;9.63;;;2.40;99.90;;;;;;4987677;28;20054;-73
2023/03/10 02:39:03;;;;;;;18.52;9.52;;;2.40;99.90;;;;;;4984839;28;20054;-73
2023/03/10 02:41:31;;;;;;;18.27;9.80;;;2.50;99.90;;;;;;4998461;28;20054;-73
2023/03/10 02:43:58;;;;;;;17.17;9.02;;;2.50;99.90;;;;;;4993790;28;20475;-73
2023/03/10 02:46:24;;;;;;;19.70;9.60;;;2.40;99.90;;;;;;4976394;28;20112;-73
2023/03/10 02:48:50;;;;;;;16.35;9.43;;;2.50;99.90;;;;;;4977062;28;20042;-73
2023/03/10 02:51:22;;;;;;;16.17;9.05;;;2.40;99.90;;;;;;4955961;28;20047;-73
2023/03/10 02:53:47;;;;;;;18.02;8.50;;;2.50;99.90;;;;;;4965768;28;20058;-73
2023/03/10 02:56:13;;;;;;;19.48;9.85;;;2.50;99.90;;;;;;4973940;28;20054;-73
2023/03/10 02:58:39;;;;;;;17.77;9.23;;;2.50;99.90;;;;;;4985012;28;20054;-73
2023/03/10 03:01:05;;;;;;;19.48;9.60;;;2.40;99.90;;;;;;4964627;28;20962;-73
2023/03/10 03:03:31;;;;;;;21.27;10.05;;;2.40;99.90;;;;;;4987891;28;20394;-73
2023/03/10 03:05:56;;;;;;;16.92;8.32;;;2.50;99.90;;;;;;4982122;28;20062;-73
2023/03/10 03:08:22;;;;;;;19.80;10.02;;;2.50;99.90;;;;;;4956919;28;20051;-73
2023/03/10 03:10:48;;;;;;;16.65;9.10;;;2.40;99.90;;;;;;4965143;28;20054;-73
2023/03/10 03:13:14;;;;;;;16.95;8.20;;;2.50;99.90;;;;;;4987799;28;20050;-73
2023/03/10 03:15:40;;;;;;;15.82;8.65;;;2.50;99.90;;;;;;4991857;28;20116;-73
2023/03/10 03:18:06;;;;;;;19.77;9.15;;;2.60;99.90;;;;;;4976168;28;20046;-73
2023/03/10 03:20:31;;;;;;;27.88;11.15;;;2.50;99.90;;;;;;4973153;28;20541;-73
2023/03/10 03:22:57;;;;;;;20.30;9.77;;;2.60;99.90;;;;;;4957703;28;20090;-73
2023/03/10 03:25:24;;;;;;;20.05;9.23;;;2.50;99.90;;;;;;4981023;28;20055;-73
2023/03/10 03:27:54;;;;;;;21.75;10.13;;;2.40;99.90;;;;;;4966673;28;20050;-73
2023/03/10 03:30:24;;;;;;;15.50;7.88;;;2.40;99.90;;;;;;4971301;28;20097;-73
2023/03/10 03:32:50;;;;;;;19.43;10.13;;;2.50;99.90;;;;;;4969964;28;20039;-73
2023/03/10 03:35:24;;;;;;;16.05;8.65;;;2.50;99.90;;;;;;4983653;28;20046;-73
2023/03/10 03:37:51;;;;;;;12.88;7.47;;;2.50;99.90;;;;;;4971601;28;20622;-73
2023/03/10 03:40:17;;;;;;;17.42;8.45;;;2.50;99.90;;;;;;4974949;28;20050;-73
2023/03/10 03:42:44;;;;;;;18.52;8.40;;;2.60;99.90;;;;;;4992594;28;20046;-73
2023/03/10 03:45:11;;;;;;;16.02;8.10;;;2.60;99.90;;;;;;4983123;28;20050;-73
2023/03/10 03:47:37;;;;;;;13.30;7.53;;;2.60;99.90;;;;;;4985479;28;20047;-73
2023/03/10 03:50:03;;;;;;;15.00;7.72;;;2.60;99.90;;;;;;4984299;28;20438;-73
2023/03/10 03:52:29;;;;;;;14.57;7.78;;;2.60;99.90;;;;;;4967784;28;20114;-73
2023/03/10 03:54:55;;;;;;;14.95;8.30;;;2.60;99.90;;;;;;4985998;28;20054;-73
2023/03/10 03:57:20;;;;;;;14.98;8.27;;;2.60;99.90;;;;;;4972204;28;20411;-73
2023/03/10 03:59:46;;;;;;;21.33;9.10;;;2.60;99.90;;;;;;4988741;28;20046;-73
2023/03/10 04:02:12;;;;;;;15.73;8.45;;;2.60;99.90;;;;;;4959629;28;20096;-73
2023/03/10 04:04:38;;;;;;;18.92;9.57;;;2.60;99.90;;;;;;4975280;28;20467;-73
2023/03/10 04:07:04;;;;;;;16.73;8.75;;;2.70;99.90;;;;;;4961211;28;20062;-73
2023/03/10 04:09:30;;;;;;;13.95;7.60;;;2.70;99.90;;;;;;4967956;28;20044;-73
2023/03/10 04:11:55;;;;;;;12.13;6.25;;;2.70;99.90;;;;;;4980853;28;20431;-73
2023/03/10 04:14:21;;;;;;;12.45;6.55;;;2.70;99.90;;;;;;4979984;28;20070;-73
2023/03/10 04:16:47;;;;;;;10.85;6.32;;;2.70;99.90;;;;;;4970852;28;20046;-73
2023/03/10 04:19:13;;;;;;;14.63;8.18;;;2.70;99.90;;;;;;4958159;28;20145;-73
2023/03/10 04:21:40;;;;;;;14.27;7.47;;;2.80;99.90;;;;;;4972316;28;20076;-73
2023/03/10 04:24:07;;;;;;;15.35;7.72;;;2.80;99.90;;;;;;4954728;28;20053;-73
2023/03/10 04:26:34;;;;;;;14.45;6.65;;;2.80;99.90;;;;;;4986445;28;20050;-73
2023/03/10 04:29:00;;;;;;;14.95;6.82;;;2.70;99.90;;;;;;4971803;28;20038;-73
2023/03/10 04:31:26;;;;;;;10.10;5.93;;;2.60;99.90;;;;;;4989774;28;20074;-73
2023/03/10 04:33:51;;;;;;;11.52;6.20;;;2.60;99.90;;;;;;4961789;28;20070;-73
2023/03/10 04:36:18;;;;;;;11.45;6.18;;;2.70;99.90;;;;;;4989778;28;20053;-73
2023/03/10 04:38:45;;;;;;;9.90;5.60;;;2.70;99.90;;;;;;4984936;28;20103;-73
2023/03/10 04:41:11;;;;;;;10.18;5.68;;;2.70;99.90;;;;;;4985188;28;20081;-73
2023/03/10 04:43:37;;;;;;;11.40;5.97;;;2.70;99.90;;;;;;4959509;28;20152;-73
2023/03/10 04:46:03;;;;;;;12.18;6.30;;;2.70;99.90;;;;;;4959587;28;20047;-74
2023/03/10 04:48:29;;;;;;;9.95;5.75;;;2.60;99.90;;;;;;4983912;28;20066;-73
2023/03/10 04:51:00;;;;;;;9.02;5.13;;;2.60;99.90;;;;;;4988376;28;20128;-73
2023/03/10 04:53:26;;;;;;;9.10;5.65;;;2.60;99.90;;;;;;4968714;28;20049;-73
2023/03/10 04:55:51;;;;;;;9.95;5.80;;;2.50;99.90;;;;;;4973977;28;20050;-73
2023/03/10 04:58:18;;;;;;;12.05;6.72;;;2.60;99.90;;;;;;4968226;28;20043;-73
2023/03/10 05:00:44;;;;;;;12.07;6.63;;;2.50;99.90;;;;;;4968985;28;20486;-73
2023/03/10 05:03:10;;;;;;;9.98;5.57;;;2.50;99.90;;;;;;4982115;28;20057;-73
2023/03/10 05:05:36;;;;;;;8.98;5.32;;;2.50;99.90;;;;;;4985921;28;20042;-73
2023/03/10 05:08:02;;;;;;;9.65;5.80;;;2.50;99.90;;;;;;4965414;28;20152;-73
2023/03/10 05:10:27;;;;;;;8.88;5.22;;;2.50;99.90;;;;;;4977939;28;20074;-73
2023/03/10 05:12:53;;;;;;;11.15;6.75;;;2.50;99.90;;;;;;4986148;28;20042;-74
2023/03/10 05:15:19;;;;;;;11.40;6.35;;;2.50;99.90;;;;;;4968426;28;20081;-73
2023/03/10 05:17:44;;;;;;;10.30;6.35;;;2.40;99.90;;;;;;4973470;28;20414;-73
2023/03/10 05:20:10;;;;;;;9.73;6.13;;;2.30;99.90;;;;;;4978081;28;20050;-73
2023/03/10 05:22:37;;;;;;;14.68;7.65;;;2.40;99.90;;;;;;4991018;28;20104;-73
2023/03/10 05:25:03;;;;;;;9.25;5.57;;;2.50;99.90;;;;;;4978049;28;20117;-72
2023/03/10 05:27:31;;;;;;;10.75;6.05;;;2.60;99.90;;;;;;4982764;28;20046;-73
2023/03/10 05:29:57;;;;;;;10.48;6.63;;;2.50;99.90;;;;;;4984808;28;20553;-73
2023/03/10 05:32:23;;;;;;;10.30;6.18;;;2.60;99.90;;;;;;4963173;28;20050;-73
2023/03/10 05:34:49;;;;;;;11.95;7.05;;;2.60;99.90;;;;;;4967182;28;20056;-73
2023/03/10 05:37:15;;;;;;;10.40;5.57;;;2.60;99.90;;;;;;4984213;28;20061;-73
2023/03/10 05:39:42;;;;;;;11.40;5.57;;;2.70;99.90;;;;;;4985852;28;20111;-73
2023/03/10 05:42:09;;;;;;;10.77;5.53;;;2.70;99.90;;;;;;4985899;28;20056;-73
2023/03/10 05:44:34;;;;;;;10.95;6.05;;;2.60;99.90;;;;;;4973987;28;20305;-74
2023/03/10 05:47:00;;;;;;;10.35;6.40;;;2.70;99.90;;;;;;4958578;28;20050;-72
2023/03/10 05:49:27;;;;;;;9.65;6.25;;;2.80;99.90;;;;;;4968598;28;20042;-72
2023/03/10 05:51:53;;;;;;;9.45;5.85;;;2.70;99.90;;;;;;4977834;28;20043;-72
2023/03/10 05:54:18;;;;;;;12.20;6.72;;;2.70;99.90;;;;;;4984294;28;20922;-74
2023/03/10 05:56:45;;;;;;;10.38;6.28;;;2.70;99.90;;;;;;4968719;28;20190;-74
2023/03/10 05:59:10;;;;;;;9.30;5.70;;;2.60;99.90;;;;;;4978092;28;20121;-73
2023/03/10 06:01:37;;;;;;;10.30;6.40;;;2.70;99.90;;;;;;4990719;28;20050;-73
2023/03/10 06:04:03;;;;;;;15.00;7.40;;;2.60;99.90;;;;;;4974560;28;20613;-73
2023/03/10 06:06:29;;;;;;;9.45;5.50;;;2.50;99.90;;;;;;4985291;28;20065;-73
2023/03/10 06:08:56;;;;;;;11.13;6.80;;;2.50;99.90;;;;;;4974055;28;20121;-74
2023/03/10 06:11:21;;;;;;;9.90;6.50;;;2.60;99.90;;;;;;4978192;28;20891;-73
2023/03/10 06:13:47;;;;;;;10.85;6.70;;;2.70;99.90;;;;;;4989362;28;20054;-73
2023/03/10 06:16:13;;;;;;;12.63;7.20;;;2.70;99.90;;;;;;4989435;28;20355;-74
2023/03/10 06:18:39;;;;;;;17.23;8.45;;;2.60;99.90;;;;;;4978012;28;20372;-74
2023/03/10 06:21:09;;;;;;;16.23;8.55;;;2.50;99.90;;;;;;4986192;28;20046;-73
2023/03/10 06:23:47;;;;;;;24.20;12.90;;;2.60;99.90;;;;;;4974215;28;20129;-73
2023/03/10 06:26:14;;;;;;;17.58;10.25;;;2.70;99.90;;;;;;4989445;28;20502;-73
2023/03/10 06:28:41;;;;;;;16.33;8.77;;;2.70;99.90;;;;;;4972668;28;20047;-73
2023/03/10 06:31:11;;;;;;;13.38;7.88;;;2.80;99.90;;;;;;4973034;28;20422;-73
2023/03/10 06:33:37;;;;;;;17.70;8.40;;;2.80;99.90;;;;;;4973848;28;20046;-72
2023/03/10 06:36:03;;;;;;;14.50;8.13;;;2.80;99.90;;;;;;4972901;28;20078;-73
2023/03/10 06:38:29;;;;;;;9.95;6.88;;;2.90;99.90;;;;;;4985942;28;20360;-73
2023/03/10 06:40:55;;;;;;;16.73;8.30;;;3.00;99.90;;;;;;4970209;28;20065;-73
2023/03/10 06:43:21;;;;;;;11.95;7.93;;;2.90;99.90;;;;;;4985611;28;20077;-73
2023/03/10 06:45:47;;;;;;;18.10;9.77;;;2.90;99.90;;;;;;4955844;28;20494;-72
2023/03/10 06:48:13;;;;;;;21.30;11.88;;;3.00;99.90;;;;;;4990899;28;20165;-73
2023/03/10 06:50:42;;;;;;;12.57;8.13;;;3.00;99.90;;;;;;4975196;28;20121;-73
2023/03/10 06:53:09;;;;;;;12.02;7.32;;;3.00;99.90;;;;;;4968848;28;20141;-73
2023/03/10 06:55:34;;;;;;;12.32;6.63;;;3.00;99.90;;;;;;4963363;28;20137;-73
2023/03/10 06:58:00;;;;;;;8.13;5.28;;;3.10;99.90;;;;;;4961053;28;20141;-73
2023/03/10 07:00:28;;;;;;;11.40;6.00;;;3.00;99.90;;;;;;4993967;28;20061;-74
2023/03/10 07:02:54;;;;;;;10.15;6.13;;;2.90;99.90;;;;;;4977326;28;20480;-73
2023/03/10 07:05:21;;;;;;;10.77;5.85;;;3.10;99.90;;;;;;4967049;28;20129;-72
2023/03/10 07:07:49;;;;;;;9.77;6.33;;;3.00;99.90;;;;;;4970886;28;20581;-72
2023/03/10 07:10:15;;;;;;;11.05;6.13;;;3.10;99.90;;;;;;4976538;28;20046;-73
2023/03/10 07:12:42;;;;;;;11.13;5.63;;;3.00;99.90;;;;;;4986716;28;20129;-73
2023/03/10 07:15:08;;;;;;;9.15;6.07;;;3.10;99.90;;;;;;4992174;28;20054;-73
2023/03/10 07:17:34;;;;;;;11.50;6.50;;;3.10;99.90;;;;;;4974585;28;20441;-73
2023/03/10 07:19:59;;;;;;;17.20;8.75;;;3.10;99.90;;;;;;4987488;28;20054;-75
2023/03/10 07:22:25;;;;;;;19.40;9.32;;;3.20;99.90;;;;;;4973045;28;20349;-75
2023/03/10 07:24:54;;;;;;;14.02;7.82;;;3.10;99.90;;;;;;4973934;28;20038;-75
2023/03/10 07:27:20;;;;;;;19.90;9.48;;;3.10;99.90;;;;;;4959092;28;20042;-75
2023/03/10 07:29:45;;;;;;;10.38;6.90;;;3.20;99.90;;;;;;4975334;28;20133;-75
2023/03/10 07:32:11;;;;;;;16.15;10.23;;;3.30;99.90;;;;;;4988273;28;20145;-75
2023/03/10 07:34:37;;;;;;;16.25;9.18;;;3.30;99.90;;;;;;4962897;28;20054;-75
2023/03/10 07:37:03;;;;;;;14.57;8.05;;;3.40;99.90;;;;;;4981150;28;20050;-75
2023/03/10 07:39:28;;;;;;;11.27;7.10;;;3.40;99.90;;;;;;4984219;28;20061;-75
2023/03/10 07:41:54;;;;;;;15.57;9.15;;;3.50;99.90;;;;;;4981276;28;20051;-75
2023/03/10 07:44:20;;;;;;;15.52;9.15;;;3.50;99.90;;;;;;4977144;28;20076;-75
2023/03/10 07:46:46;;;;;;;13.30;8.20;;;3.60;99.90;;;;;;4972390;28;20145;-74
2023/03/10 07:49:11;;;;;;;15.98;9.15;;;3.70;99.90;;;;;;4978187;28;20125;-74
2023/03/10 07:51:37;;;;;;;18.65;9.57;;;3.60;99.90;;;;;;4972102;28;20050;-75
2023/03/10 07:54:03;;;;;;;16.45;8.85;;;3.60;99.90;;;;;;4984859;28;20781;-74
2023/03/10 07:56:29;;;;;;;17.40;10.27;;;3.60;99.90;;;;;;4968860;28;20069;-74
2023/03/10 07:58:55;;;;;;;16.17;9.73;;;3.70;99.90;;;;;;4977100;28;20046;-75
2023/03/10 08:01:21;;;;;;;16.05;10.02;;;3.70;99.90;;;;;;4992795;28;20116;-74
2023/03/10 08:03:47;;;;;;;17.23;9.77;;;3.70;99.90;;;;;;4993049;28;20126;-74
2023/03/10 08:06:20;;;;;;;13.50;8.45;;;3.70;99.90;;;;;;4975183;28;20060;-72
2023/03/10 08:08:46;;;;;;;17.08;9.00;;;3.80;99.90;;;;;;4985615;28;20045;-72
2023/03/10 08:11:12;;;;;;;13.10;7.75;;;3.90;99.90;;;;;;4985587;28;20038;-72
2023/03/10 08:13:39;;;;;;;14.20;8.68;;;4.00;99.90;;;;;;4969600;28;20042;-72
2023/03/10 08:16:06;;;;;;;13.10;8.53;;;4.20;99.90;;;;;;4974399;28;20070;-72
2023/03/10 08:18:31;;;;;;;12.52;7.65;;;4.00;99.90;;;;;;4969428;28;20047;-72
2023/03/10 08:20:57;;;;;;;10.63;6.85;;;4.00;99.90;;;;;;4972678;28;20386;-72
2023/03/10 08:23:23;;;;;;;12.02;7.63;;;3.90;99.90;;;;;;4947758;28;20050;-72
2023/03/10 08:25:49;;;;;;;11.93;7.25;;;4.00;99.90;;;;;;4975043;28;20120;-73
2023/03/10 08:28:16;;;;;;;10.90;6.57;;;3.90;99.90;;;;;;4963974;28;20447;-72
2023/03/10 08:30:42;;;;;;;12.95;7.68;;;4.00;99.90;;;;;;4975497;28;20116;-73
2023/03/10 08:33:08;;;;;;;10.63;6.35;;;3.90;99.90;;;;;;4992113;28;20046;-73
2023/03/10 08:35:35;;;;;;;13.77;8.75;;;3.90;99.90;;;;;;4991151;28;20057;-73
2023/03/10 08:38:01;;;;;;;12.38;7.88;;;3.90;99.90;;;;;;4975600;28;20407;-73
2023/03/10 08:40:28;;;;;;;11.68;7.25;;;3.80;99.90;;;;;;4973074;28;20122;-73
2023/03/10 08:42:53;;;;;;;14.18;7.97;;;3.90;99.90;;;;;;4947275;28;20142;-73
2023/03/10 08:45:22;;;;;;;14.57;8.05;;;3.90;99.90;;;;;;4974671;28;20120;-73
2023/03/10 08:47:48;;;;;;;13.48;7.55;;;4.00;99.90;;;;;;4969429;28;20039;-73
2023/03/10 08:50:14;;;;;;;12.18;7.47;;;4.00;99.90;;;;;;4989665;28;20049;-73
2023/03/10 08:52:39;;;;;;;13.50;8.18;;;4.10;99.90;;;;;;4975130;28;20042;-73
2023/03/10 08:55:06;;;;;;;13.20;7.15;;;4.10;99.90;;;;;;4982392;28;20122;-73
2023/03/10 08:57:31;;;;;;;13.80;8.02;;;4.10;99.90;;;;;;4956967;28;20042;-73
2023/03/10 08:59:57;;;;;;;14.70;8.25;;;4.10;99.90;;;;;;4974913;28;20125;-73
2023/03/10 09:02:24;;;;;;;14.25;8.70;;;4.10;99.90;;;;;;4959044;28;20116;-74
2023/03/10 09:04:49;;;;;;;13.40;7.45;;;4.00;99.90;;;;;;4972508;28;20113;-72
2023/03/10 09:07:16;;;;;;;13.45;7.32;;;4.10;99.90;;;;;;4959171;28;20046;-72
2023/03/10 09:09:41;;;;;;;11.93;6.72;;;4.10;99.90;;;;;;4987133;28;20824;-72
2023/03/10 09:12:08;;;;;;;11.40;7.35;;;4.10;99.90;;;;;;4978642;28;20055;-72
2023/03/10 09:14:37;;;;;;;11.73;6.55;;;4.10;99.90;;;;;;4986587;28;20078;-73
2023/03/10 09:17:03;;;;;;;16.13;8.70;;;4.20;99.90;;;;;;4972169;28;20783;-73
2023/03/10 09:19:29;;;;;;;13.38;6.25;;;4.10;99.90;;;;;;4979662;28;20058;-73
2023/03/10 09:21:56;;;;;;;8.15;5.30;;;4.20;99.90;;;;;;4991719;28;20509;-72
2023/03/10 09:24:23;;;;;;;10.27;4.97;;;4.10;99.90;;;;;;4973366;28;20058;-72
2023/03/10 09:26:49;;;;;;;9.48;4.88;;;4.30;99.90;;;;;;4970820;28;20043;-72
2023/03/10 09:29:15;;;;;;;9.55;5.00;;;4.30;99.90;;;;;;4969221;28;20073;-73
2023/03/10 09:31:42;;;;;;;8.90;5.30;;;4.30;99.90;;;;;;4968039;28;20093;-72
2023/03/10 09:34:07;;;;;;;10.57;5.50;;;4.40;99.90;;;;;;4971341;28;20486;-72
2023/03/10 09:36:33;;;;;;;11.50;6.95;;;4.40;99.90;;;;;;4967022;28;20058;-72
2023/03/10 09:38:59;;;;;;;10.35;5.82;;;4.40;99.90;;;;;;4947969;28;20050;-72
2023/03/10 09:41:28;;;;;;;8.98;5.93;;;4.40;99.90;;;;;;4962080;28;20469;-74
2023/03/10 09:44:17;;;;;;;7.85;5.18;;;4.40;99.90;;;;;;4979552;28;20109;-73
2023/03/10 09:46:53;;;;;;;10.23;5.43;;;4.40;99.90;;;;;;4961988;28;20049;-74
2023/03/10 09:50:08;;;;;;;8.68;4.85;;;4.40;99.90;;;;;;4984876;28;20106;-74
2023/03/10 09:53:12;;;;;;;6.53;4.47;;;4.50;99.90;;;;;;4944352;28;20042;-73
2023/03/10 09:55:43;;;;;;;8.15;5.32;;;4.50;99.90;;;;;;4979532;28;20104;-73
2023/03/10 09:58:36;;;;;;;8.32;4.57;;;4.50;99.90;;;;;;4957465;28;20046;-72
2023/03/10 10:01:03;;;;;;;6.93;4.75;;;4.50;99.90;;;;;;4983028;28;20054;-72
2023/03/10 10:03:38;;;;;;;8.35;4.65;;;4.60;99.90;;;;;;4948380;28;20134;-72
2023/03/10 10:06:05;;;;;;;7.75;5.00;;;4.60;99.90;;;;;;4960424;28;20097;-72
2023/03/10 10:08:45;;;;;;;9.30;5.60;;;4.60;99.90;;;;;;4964949;28;20047;-72
2023/03/10 10:11:15;;;;;;;8.48;5.20;;;4.70;99.90;;;;;;4962448;28;20050;-72
2023/03/10 10:13:41;;;;;;;7.72;5.20;;;4.60;99.90;;;;;;4954356;28;20054;-72
2023/03/10 10:16:19;;;;;;;9.15;5.57;;;4.60;99.90;;;;;;4945997;28;20151;-72
2023/03/10 10:18:53;;;;;;;9.93;5.32;;;4.60;99.90;;;;;;4957865;28;20107;-71
2023/03/10 10:21:27;;;;;;;7.75;5.20;;;4.50;99.90;;;;;;4948312;28;20386;-71
2023/03/10 10:23:58;;;;;;;6.90;4.35;;;4.50;99.90;;;;;;4942468;28;20050;-71
2023/03/10 10:26:28;;;;;;;7.70;4.80;;;4.60;99.90;;;;;;4940783;28;20565;-72
2023/03/10 10:28:53;;;;;;;7.30;4.82;;;4.60;99.90;;;;;;4966390;28;20054;-71
2023/03/10 10:31:21;;;;;;;5.90;4.38;;;4.60;99.90;;;;;;4984795;28;20379;-71
2023/03/10 10:34:03;;;;;;;6.78;4.43;;;4.50;99.90;;;;;;4950239;28;20050;-71
2023/03/10 10:36:36;;;;;;;6.25;4.05;;;4.60;99.90;;;;;;4967838;28;20061;-73
2023/03/10 10:39:04;;;;;;;7.45;4.30;;;4.60;99.90;;;;;;4971693;28;20475;-73
2023/03/10 10:41:32;;;;;;;4.65;3.35;;;4.60;99.90;;;;;;4952182;28;20074;-73
2023/03/10 10:44:05;;;;;;;5.53;3.80;;;4.60;99.90;;;;;;4971576;28;20104;-73
2023/03/10 10:46:31;;;;;;;5.55;3.60;;;4.80;99.90;;;;;;4948549;28;20114;-73
2023/03/10 10:49:17;;;;;;;5.40;3.25;;;4.80;99.90;;;;;;4942975;28;20719;-73
2023/03/10 10:51:42;;;;;;;6.30;3.45;;;4.70;99.90;;;;;;4972626;28;20521;-74
2023/03/10 10:54:28;;;;;;;5.55;3.50;;;4.70;99.90;;;;;;4993441;28;20054;-74
2023/03/10 10:56:56;;;;;;;4.63;3.03;;;4.60;99.90;;;;;;4973590;28;20058;-74
2023/03/10 10:59:26;;;;;;;4.85;3.20;;;4.60;99.90;;;;;;4952613;28;20171;-74
2023/03/10 11:01:54;;;;;;;5.53;3.65;;;4.70;99.90;;;;;;4970784;28;20042;-74
2023/03/10 11:04:23;;;;;;;6.35;3.28;;;4.80;99.90;;;;;;4957982;28;20054;-74
2023/03/10 11:06:49;;;;;;;5.40;2.85;;;4.90;99.90;;;;;;4953955;28;20050;-74
2023/03/10 11:09:20;;;;;;;4.93;3.05;;;5.00;99.90;;;;;;4965204;28;20066;-74
2023/03/10 11:12:00;;;;;;;5.20;3.22;;;5.00;99.90;;;;;;4985950;28;20152;-73
2023/03/10 11:14:41;;;;;;;5.88;3.30;;;4.90;99.90;;;;;;4983408;28;20046;-74
2023/03/10 11:17:10;;;;;;;4.45;3.17;;;4.80;99.90;;;;;;4964558;28;20054;-74
2023/03/10 11:19:54;;;;;;;6.22;3.72;;;4.90;99.90;;;;;;4977177;28;20053;-74
2023/03/10 11:22:45;;;;;;;6.72;3.75;;;4.90;99.90;;;;;;4987733;28;20061;-74
2023/03/10 11:25:38;;;;;;;6.63;3.55;;;4.80;99.90;;;;;;4970639;28;20053;-74
2023/03/10 11:28:27;;;;;;;5.13;3.35;;;5.00;99.90;;;;;;4945301;28;20498;-74
2023/03/10 11:30:59;;;;;;;5.60;3.97;;;4.90;99.90;;;;;;4988577;28;20051;-75
2023/03/10 11:33:28;;;;;;;7.63;3.55;;;4.90;99.90;;;;;;4965869;28;20172;-75
2023/03/10 11:36:03;;;;;;;6.38;4.20;;;5.00;99.90;;;;;;4986839;28;20521;-75
2023/03/10 11:38:29;;;;;;;5.78;4.07;;;5.00;99.90;;;;;;4975260;28;20050;-75
2023/03/10 11:41:02;;;;;;;8.45;5.15;;;5.00;99.90;;;;;;4984077;28;20114;-75
2023/03/10 11:43:32;;;;;;;5.95;4.22;;;5.00;99.90;;;;;;4982628;28;20359;-75
2023/03/10 11:46:00;;;;;;;7.80;6.07;;;5.00;99.90;;;;;;4981109;28;20042;-74
2023/03/10 14:31:19;;;;;;;6.00;3.50;;;4.70;99.90;;;;;;4109107;28;20050;-72
2023/03/10 14:33:44;;;;;;;5.50;3.22;;;4.50;99.90;;;;;;4964555;28;20054;-72
2023/03/10 14:36:10;;;;;;;5.57;3.65;;;4.60;99.90;;;;;;4958335;28;20051;-72
2023/03/10 14:38:36;;;;;;;6.50;2.72;;;4.60;99.90;;;;;;4959967;28;20137;-72
2023/03/10 14:41:02;;;;;;;5.45;3.45;;;4.70;99.90;;;;;;4944226;28;20197;-72
2023/03/10 14:43:28;;;;;;;5.43;3.60;;;4.60;99.90;;;;;;4975638;28;20826;-72
2023/03/10 14:45:58;;;;;;;7.05;3.70;;;4.60;99.90;;;;;;4935204;28;20043;-73
2023/03/10 14:48:26;;;;;;;5.22;3.53;;;4.60;99.90;;;;;;4970567;28;20085;-72
2023/03/10 14:50:52;;;;;;;5.40;3.45;;;4.60;99.90;;;;;;4971083;28;20062;-72
2023/03/10 14:53:20;;;;;;;5.93;3.78;;;4.60;99.90;;;;;;4960232;28;20794;-72
2023/03/10 14:55:47;;;;;;;4.78;3.47;;;4.60;99.90;;;;;;4952949;28;20061;-72
2023/03/10 14:58:19;;;;;;;5.95;3.22;;;4.60;99.90;;;;;;4950907;28;20053;-73
2023/03/10 15:00:45;;;;;;;5.03;3.58;;;4.60;99.90;;;;;;4963495;28;20065;-72
2023/03/10 15:03:11;;;;;;;6.15;3.90;;;4.60;99.90;;;;;;4959587;28;20051;-72
2023/03/10 15:05:37;;;;;;;5.60;3.70;;;4.50;99.90;;;;;;4964767;28;20061;-72
2023/03/10 15:08:03;;;;;;;6.68;3.63;;;4.50;99.90;;;;;;4957996;28;20375;-72
2023/03/10 15:10:29;;;;;;;6.20;3.72;;;4.60;99.90;;;;;;4980278;28;20090;-72
2023/03/10 15:12:55;;;;;;;4.22;2.92;;;4.50;99.90;;;;;;4948731;28;20408;-72
2023/03/10 15:15:25;;;;;;;6.28;3.90;;;4.50;99.90;;;;;;4978349;28;20160;-72
2023/03/10 15:17:51;;;;;;;5.28;3.70;;;4.50;99.90;;;;;;4967155;28;20158;-72
2023/03/10 15:20:21;;;;;;;6.18;3.75;;;4.50;99.90;;;;;;4967431;28;20162;-72
2023/03/10 15:22:55;;;;;;;6.13;3.42;;;4.40;99.90;;;;;;4990294;28;20046;-73
2023/03/10 15:25:20;;;;;;;5.45;3.45;;;4.30;99.90;;;;;;4980488;28;20520;-72
2023/03/10 15:27:47;;;;;;;5.53;3.40;;;4.30;99.90;;;;;;4966669;28;20046;-72
2023/03/10 15:30:27;;;;;;;6.00;3.80;;;4.30;99.90;;;;;;4974356;28;20050;-72
2023/03/10 15:32:52;;;;;;;8.13;4.18;;;4.40;99.90;;;;;;4947924;28;20095;-72
2023/03/10 15:35:20;;;;;;;5.13;3.63;;;4.40;99.90;;;;;;4979617;28;20086;-72
2023/03/10 15:37:46;;;;;;;6.47;3.27;;;4.40;99.90;;;;;;4980236;28;20628;-72